createdAt,value
2023-06-19T00:02:16.373Z,49.70
2023-06-19T00:04:43.782Z,50.00
2023-06-19T00:07:11.163Z,50.30
2023-06-19T00:09:38.563Z,50.00
2023-06-19T00:12:06.641Z,50.10
2023-06-19T00:14:34.053Z,50.20
2023-06-19T00:17:01.942Z,50.10
2023-06-19T00:19:29.595Z,50.30
2023-06-19T00:21:58.248Z,50.40
2023-06-19T00:24:25.707Z,51.30
2023-06-19T00:26:53.142Z,51.60
2023-06-19T00:29:20.547Z,51.80
2023-06-19T00:31:47.983Z,51.60
2023-06-19T00:34:16.304Z,51.40
2023-06-19T00:36:44.349Z,51.60
2023-06-19T00:39:11.924Z,51.70
2023-06-19T00:41:40.464Z,51.70
2023-06-19T00:44:07.881Z,51.70
2023-06-19T00:46:38.805Z,52.10
2023-06-19T00:49:06.811Z,52.70
2023-06-19T00:51:34.765Z,52.20
2023-06-19T00:54:02.564Z,52.50
2023-06-19T00:56:30.008Z,53.10
2023-06-19T00:58:59.495Z,52.90
2023-06-19T01:01:28.549Z,53.30
2023-06-19T01:03:57.500Z,54.10
2023-06-19T01:06:39.256Z,54.30
2023-06-19T01:09:11.590Z,55.50
2023-06-19T01:11:45.541Z,55.90
2023-06-19T01:14:22.253Z,55.60
2023-06-19T01:16:49.891Z,55.50
2023-06-19T01:19:21.429Z,55.30
2023-06-19T01:21:50.623Z,55.30
2023-06-19T01:24:19.027Z,55.80
2023-06-19T01:26:47.011Z,56.30
2023-06-19T01:29:16.525Z,55.40
2023-06-19T01:31:51.848Z,55.40
2023-06-19T01:34:21.555Z,55.80
2023-06-19T01:36:50.821Z,55.80
2023-06-19T01:39:20.621Z,55.40
2023-06-19T01:41:49.111Z,55.40
2023-06-19T01:44:16.692Z,55.80
2023-06-19T01:46:52.145Z,55.80
2023-06-19T01:49:19.795Z,55.60
2023-06-19T01:51:47.433Z,55.30
2023-06-19T01:54:15.493Z,56.20
2023-06-19T01:56:42.949Z,56.10
2023-06-19T01:59:10.325Z,56.20
2023-06-19T02:01:37.775Z,55.60
2023-06-19T02:04:05.514Z,55.50
2023-06-19T02:06:33.153Z,56.00
2023-06-19T02:09:00.850Z,56.00
2023-06-19T02:11:28.301Z,55.70
2023-06-19T02:13:56.252Z,56.30
2023-06-19T02:16:24.093Z,56.50
2023-06-19T02:18:52.253Z,56.40
2023-06-19T02:21:19.703Z,57.00
2023-06-19T02:23:47.159Z,56.80
2023-06-19T02:26:14.565Z,56.90
2023-06-19T02:28:42.354Z,57.30
2023-06-19T02:31:09.778Z,57.20
2023-06-19T02:33:39.070Z,56.80
2023-06-19T02:36:06.589Z,56.50
2023-06-19T02:38:34.033Z,56.60
2023-06-19T02:41:02.476Z,57.60
2023-06-19T02:43:31.093Z,57.20
2023-06-19T02:45:58.590Z,57.40
2023-06-19T02:48:26.052Z,57.50
2023-06-19T02:50:54.826Z,57.70
2023-06-19T02:53:22.325Z,57.50
2023-06-19T02:55:49.678Z,57.70
2023-06-19T02:58:17.269Z,57.80
2023-06-19T03:00:45.735Z,57.80
2023-06-19T03:03:13.386Z,58.00
2023-06-19T03:05:40.979Z,58.20
2023-06-19T03:08:08.452Z,58.80
2023-06-19T03:10:36.346Z,58.40
2023-06-19T03:13:03.702Z,58.30
2023-06-19T03:15:31.151Z,58.90
2023-06-19T03:17:59.017Z,59.70
2023-06-19T03:20:27.766Z,58.90
2023-06-19T03:22:58.648Z,58.30
2023-06-19T03:25:27.858Z,58.10
2023-06-19T03:27:55.232Z,58.30
2023-06-19T03:30:23.657Z,58.20
2023-06-19T03:32:53.066Z,57.90
2023-06-19T03:35:37.505Z,58.40
2023-06-19T03:38:05.283Z,59.10
2023-06-19T03:40:32.653Z,59.10
2023-06-19T03:43:06.973Z,59.00
2023-06-19T03:45:34.661Z,59.60
2023-06-19T03:48:02.072Z,59.50
2023-06-19T03:50:29.497Z,59.30
2023-06-19T03:52:56.951Z,59.20
2023-06-19T03:55:24.468Z,59.40
2023-06-19T03:57:51.971Z,58.90
2023-06-19T04:00:20.084Z,59.20
2023-06-19T04:02:50.591Z,59.00
2023-06-19T04:05:18.512Z,58.90
2023-06-19T04:07:46.155Z,59.00
2023-06-19T04:10:15.824Z,59.00
2023-06-19T04:12:43.279Z,59.00
2023-06-19T04:15:11.190Z,59.70
2023-06-19T04:17:38.740Z,61.00
2023-06-19T04:20:12.011Z,61.10
2023-06-19T04:22:41.682Z,61.20
2023-06-19T04:25:11.667Z,61.30
2023-06-19T04:27:39.284Z,62.20
2023-06-19T04:30:10.003Z,61.10
2023-06-19T04:32:37.643Z,61.10
2023-06-19T04:35:05.507Z,61.90
2023-06-19T04:37:32.809Z,62.00
2023-06-19T04:40:00.220Z,62.60
2023-06-19T04:42:28.399Z,63.30
2023-06-19T04:44:56.457Z,63.00
2023-06-19T04:47:30.578Z,64.00
2023-06-19T04:50:01.470Z,63.40
2023-06-19T04:52:29.574Z,63.40
2023-06-19T04:54:57.293Z,63.60
2023-06-19T04:57:25.245Z,63.90
2023-06-19T04:59:52.678Z,64.10
2023-06-19T05:02:20.780Z,63.30
2023-06-19T05:04:48.306Z,63.70
2023-06-19T05:07:16.656Z,63.80
2023-06-19T05:09:44.253Z,64.20
2023-06-19T05:12:12.297Z,64.40
2023-06-19T05:14:40.144Z,63.70
2023-06-19T05:17:07.669Z,64.00
2023-06-19T05:19:35.183Z,64.10
2023-06-19T05:22:02.590Z,64.40
2023-06-19T05:24:30.305Z,63.10
2023-06-19T05:26:57.675Z,63.40
2023-06-19T05:29:25.781Z,62.60
2023-06-19T05:31:53.116Z,62.20
2023-06-19T05:34:20.570Z,63.20
2023-06-19T05:36:48.471Z,62.70
2023-06-19T05:39:15.993Z,62.00
2023-06-19T05:41:44.609Z,61.70
2023-06-19T05:44:15.249Z,62.10
2023-06-19T05:46:42.928Z,61.90
2023-06-19T05:49:10.460Z,60.80
2023-06-19T05:51:38.202Z,60.60
2023-06-19T05:54:05.712Z,59.40
2023-06-19T05:56:34.384Z,59.00
2023-06-19T05:59:05.588Z,59.10
2023-06-19T06:01:33.134Z,58.20
2023-06-19T06:04:02.658Z,58.10
2023-06-19T06:06:30.113Z,57.70
2023-06-19T06:08:57.475Z,57.00
2023-06-19T06:11:24.781Z,57.00
2023-06-19T06:13:52.105Z,57.00
2023-06-19T06:16:19.507Z,56.50
2023-06-19T06:18:47.224Z,56.30
2023-06-19T06:21:14.739Z,56.70
2023-06-19T06:23:42.799Z,56.80
2023-06-19T06:26:10.815Z,56.80
2023-06-19T06:28:39.719Z,56.70
2023-06-19T06:31:07.496Z,56.70
2023-06-19T06:33:34.840Z,57.30
2023-06-19T06:36:02.744Z,56.40
2023-06-19T06:38:30.475Z,55.80
2023-06-19T06:40:57.901Z,55.90
2023-06-19T06:43:25.538Z,55.70
2023-06-19T06:45:53.849Z,54.90
2023-06-19T06:48:21.854Z,55.60
2023-06-19T06:50:49.392Z,55.50
2023-06-19T06:53:17.101Z,55.30
2023-06-19T06:55:48.225Z,54.70
2023-06-19T06:58:15.790Z,54.10
2023-06-19T07:00:43.631Z,53.90
2023-06-19T07:03:11.772Z,53.50
2023-06-19T07:05:39.298Z,53.20
2023-06-19T07:08:06.705Z,53.10
2023-06-19T07:10:34.067Z,53.10
2023-06-19T07:13:01.408Z,53.40
2023-06-19T07:15:28.942Z,52.60
2023-06-19T07:17:57.556Z,52.10
2023-06-19T07:20:25.204Z,52.40
2023-06-19T07:22:54.552Z,51.30
2023-06-19T07:25:25.256Z,51.40
2023-06-19T07:27:52.933Z,50.60
2023-06-19T07:30:20.760Z,50.30
2023-06-19T07:32:48.402Z,50.10
2023-06-19T07:35:16.005Z,49.70
2023-06-19T07:37:43.513Z,50.20
2023-06-19T07:40:11.515Z,49.60
2023-06-19T07:42:39.030Z,50.00
2023-06-19T07:45:06.942Z,49.80
2023-06-19T07:47:34.568Z,49.10
2023-06-19T07:50:02.049Z,49.50
2023-06-19T07:52:29.530Z,49.20
2023-06-19T07:54:58.168Z,49.10
2023-06-19T07:57:27.041Z,49.20
2023-06-19T07:59:55.817Z,49.30
2023-06-19T08:02:23.518Z,49.20
2023-06-19T08:04:51.022Z,48.90
2023-06-19T08:07:18.479Z,49.70
2023-06-19T08:09:48.293Z,49.70
2023-06-19T08:12:19.427Z,48.90
2023-06-19T08:14:46.763Z,49.50
2023-06-19T08:17:14.173Z,48.90
2023-06-19T08:19:43.738Z,49.20
2023-06-19T08:22:11.334Z,49.30
2023-06-19T08:24:41.032Z,49.40
2023-06-19T08:27:10.800Z,49.10
2023-06-19T08:29:38.227Z,49.90
2023-06-19T08:32:06.563Z,49.00
2023-06-19T08:34:33.896Z,49.40
2023-06-19T08:37:01.251Z,48.30
2023-06-19T08:39:28.686Z,48.40
2023-06-19T08:41:56.490Z,48.40
2023-06-19T08:44:23.979Z,46.40
2023-06-19T08:46:51.507Z,47.70
2023-06-19T08:49:18.872Z,48.10
2023-06-19T08:51:46.854Z,47.30
2023-06-19T08:54:14.458Z,47.50
2023-06-19T08:56:43.936Z,47.30
2023-06-19T08:59:14.515Z,46.50
2023-06-19T09:01:54.370Z,46.50
2023-06-19T09:04:28.530Z,46.40
2023-06-19T09:07:01.501Z,46.10
2023-06-19T09:09:45.257Z,45.40
2023-06-19T09:12:15.331Z,45.60
2023-06-19T09:14:46.725Z,44.80
2023-06-19T09:17:20.441Z,45.10
2023-06-19T09:19:52.640Z,44.10
2023-06-19T09:22:22.995Z,43.40
2023-06-19T09:24:51.161Z,44.70
2023-06-19T09:27:20.491Z,43.70
2023-06-19T09:29:49.609Z,42.00
2023-06-19T09:32:24.112Z,42.20
2023-06-19T09:34:54.869Z,42.30
2023-06-19T09:37:31.100Z,42.10
2023-06-19T09:40:02.345Z,41.90
2023-06-19T09:42:34.957Z,42.40
2023-06-19T09:45:05.363Z,41.00
2023-06-19T09:47:46.979Z,41.00
2023-06-19T09:50:18.393Z,42.20
2023-06-19T09:52:52.237Z,40.50
2023-06-19T09:55:20.463Z,40.80
2023-06-19T09:57:49.683Z,41.60
2023-06-19T10:00:23.096Z,41.60
2023-06-19T10:02:51.476Z,40.50
2023-06-19T10:05:29.866Z,41.50
2023-06-19T10:08:00.754Z,41.40
2023-06-19T10:10:32.239Z,41.70
2023-06-19T10:13:14.047Z,42.50
2023-06-19T10:15:44.060Z,41.80
2023-06-19T10:18:19.238Z,40.90
2023-06-19T10:20:47.904Z,41.70
2023-06-19T10:23:18.696Z,42.90
2023-06-19T10:25:49.016Z,41.60
2023-06-19T10:28:24.653Z,42.90
2023-06-19T10:31:00.226Z,43.20
2023-06-19T10:33:29.785Z,42.80
2023-06-19T10:35:58.641Z,43.10
2023-06-19T10:38:26.143Z,44.20
2023-06-19T10:40:53.754Z,43.60
2023-06-19T10:43:26.305Z,43.30
2023-06-19T10:45:54.071Z,44.00
2023-06-19T10:48:24.660Z,43.40
2023-06-19T10:50:52.641Z,43.10
2023-06-19T10:53:33.294Z,42.90
2023-06-19T10:56:02.948Z,43.70
2023-06-19T10:58:30.404Z,42.60
2023-06-19T11:00:58.146Z,43.70
2023-06-19T11:03:25.810Z,43.30
2023-06-19T11:05:53.592Z,44.30
2023-06-19T11:08:23.368Z,44.00
2023-06-19T11:10:51.826Z,43.50
2023-06-19T11:13:20.551Z,43.40
2023-06-19T11:15:52.250Z,44.20
2023-06-19T11:18:20.225Z,43.60
2023-06-19T11:20:52.363Z,44.10
2023-06-19T11:23:27.965Z,43.40
2023-06-19T11:25:56.096Z,44.50
2023-06-19T11:28:23.581Z,44.00
2023-06-19T11:31:05.129Z,44.10
2023-06-19T11:33:34.406Z,44.40
2023-06-19T11:36:02.634Z,44.30
2023-06-19T11:38:30.993Z,44.90
2023-06-19T11:40:58.435Z,43.70
2023-06-19T11:43:26.606Z,43.80
2023-06-19T11:46:00.612Z,43.40
2023-06-19T11:48:28.871Z,43.70
2023-06-19T11:50:56.362Z,43.40
2023-06-19T11:53:25.476Z,44.20
2023-06-19T11:55:53.441Z,43.80
2023-06-19T11:58:22.404Z,42.70
2023-06-19T12:00:51.321Z,44.70
2023-06-19T12:03:19.106Z,43.90
2023-06-19T12:05:46.674Z,43.00
2023-06-19T12:08:14.827Z,44.90
2023-06-19T12:10:42.960Z,44.20
2023-06-19T12:13:10.408Z,43.80
2023-06-19T12:15:38.136Z,44.70
2023-06-19T12:18:08.105Z,43.30
2023-06-19T12:20:35.532Z,43.50
2023-06-19T12:23:04.108Z,44.70
2023-06-19T12:25:31.529Z,45.70
2023-06-19T12:27:58.916Z,44.50
2023-06-19T12:30:26.503Z,45.50
2023-06-19T12:32:54.593Z,45.20
2023-06-19T12:35:23.453Z,44.50
2023-06-19T12:37:51.024Z,45.20
2023-06-19T12:40:18.977Z,45.30
2023-06-19T12:42:47.310Z,45.80
2023-06-19T12:45:14.775Z,44.60
2023-06-19T12:47:42.280Z,44.70
2023-06-19T12:50:10.047Z,44.80
2023-06-19T12:52:37.495Z,44.10
2023-06-19T12:55:05.423Z,45.00
2023-06-19T12:57:32.888Z,44.80
2023-06-19T13:00:00.445Z,45.20
2023-06-19T13:02:28.161Z,44.00
2023-06-19T13:04:55.767Z,42.90
2023-06-19T13:07:23.195Z,42.90
2023-06-19T13:09:50.741Z,44.40
2023-06-19T13:12:18.249Z,44.20
2023-06-19T13:14:45.608Z,45.50
2023-06-19T13:17:13.028Z,45.40
2023-06-19T13:19:40.461Z,44.70
2023-06-19T13:22:08.205Z,44.10
2023-06-19T13:24:35.811Z,43.60
2023-06-19T13:27:03.392Z,44.70
2023-06-19T13:29:30.859Z,45.00
2023-06-19T13:31:58.273Z,45.30
2023-06-19T13:34:25.670Z,45.60
2023-06-19T13:36:53.187Z,44.50
2023-06-19T13:39:20.539Z,43.90
2023-06-19T13:41:48.849Z,44.20
2023-06-19T13:44:16.254Z,45.10
2023-06-19T13:46:43.943Z,43.70
2023-06-19T13:49:12.051Z,43.40
2023-06-19T13:51:39.558Z,43.90
2023-06-19T13:54:07.366Z,43.90
2023-06-19T13:56:34.704Z,44.90
2023-06-19T13:59:02.040Z,43.30
2023-06-19T14:01:30.915Z,42.70
2023-06-19T14:03:58.956Z,42.50
2023-06-19T14:06:26.472Z,43.20
2023-06-19T14:08:57.810Z,42.70
2023-06-19T14:11:25.139Z,43.00
2023-06-19T14:13:52.605Z,43.10
2023-06-19T14:16:20.551Z,41.40
2023-06-19T14:18:48.003Z,42.00
2023-06-19T14:21:15.432Z,41.90
2023-06-19T14:23:44.213Z,40.80
2023-06-19T14:26:12.674Z,42.40
2023-06-19T14:28:40.340Z,42.00
2023-06-19T14:31:08.365Z,41.60
2023-06-19T14:33:38.059Z,41.90
2023-06-19T14:36:06.089Z,41.60
2023-06-19T14:38:35.201Z,41.70
2023-06-19T14:44:35.191Z,40.70
2023-06-19T14:47:03.017Z,41.40
2023-06-19T14:49:30.535Z,40.20
2023-06-19T14:51:58.075Z,41.60
2023-06-19T14:54:25.476Z,40.00
2023-06-19T14:56:53.138Z,39.90
2023-06-19T14:59:20.612Z,41.40
2023-06-19T15:01:48.531Z,39.30
2023-06-19T15:04:16.407Z,39.40
2023-06-19T15:06:44.086Z,40.40
2023-06-19T15:09:11.617Z,39.10
2023-06-19T15:11:39.187Z,39.80
2023-06-19T15:14:06.608Z,39.50
2023-06-19T15:16:36.024Z,40.50
2023-06-19T15:19:05.398Z,41.10
2023-06-19T15:21:32.885Z,40.30
2023-06-19T15:24:00.212Z,40.00
2023-06-19T15:26:27.588Z,40.00
2023-06-19T15:28:55.485Z,40.50
2023-06-19T15:31:23.952Z,39.00
2023-06-19T15:33:51.796Z,37.80
2023-06-19T15:36:19.538Z,37.60
2023-06-19T15:38:47.155Z,37.60
2023-06-19T15:41:15.026Z,38.20
2023-06-19T15:43:43.147Z,39.10
2023-06-19T15:46:10.709Z,38.90
2023-06-19T15:48:38.463Z,39.10
2023-06-19T15:51:06.242Z,39.30
2023-06-19T15:53:34.045Z,39.50
2023-06-19T15:56:01.800Z,39.80
2023-06-19T15:58:29.452Z,38.70
2023-06-19T16:00:56.939Z,39.90
2023-06-19T16:03:24.545Z,40.10
2023-06-19T16:08:26.305Z,39.50
2023-06-19T16:10:53.740Z,39.80
2023-06-19T16:13:21.252Z,40.50
2023-06-19T16:15:48.680Z,40.40
2023-06-19T16:18:16.689Z,40.00
2023-06-19T16:20:44.488Z,39.70
2023-06-19T16:23:11.947Z,39.80
2023-06-19T16:25:39.603Z,38.80
2023-06-19T16:28:07.384Z,39.70
2023-06-19T16:30:35.172Z,39.80
2023-06-19T16:33:02.706Z,40.00
2023-06-19T16:35:30.094Z,39.80
2023-06-19T16:37:57.468Z,40.20
2023-06-19T16:40:26.215Z,40.20
2023-06-19T16:42:54.750Z,40.30
2023-06-19T16:45:24.761Z,40.80
2023-06-19T16:47:52.264Z,40.20
2023-06-19T16:50:19.691Z,40.10
2023-06-19T16:52:49.127Z,40.20
2023-06-19T16:55:16.570Z,41.20
2023-06-19T16:57:44.401Z,41.50
2023-06-19T17:00:12.425Z,41.10
2023-06-19T17:02:39.906Z,42.20
2023-06-19T17:05:07.749Z,42.50
2023-06-19T17:07:35.106Z,41.00
2023-06-19T17:10:03.672Z,40.80
2023-06-19T17:12:34.126Z,41.70
2023-06-19T17:15:01.724Z,40.60
2023-06-19T17:17:30.070Z,41.40
2023-06-19T17:19:57.548Z,41.00
2023-06-19T17:22:24.890Z,41.50
2023-06-19T17:24:52.351Z,40.80
2023-06-19T17:27:19.964Z,41.20
2023-06-19T17:29:47.442Z,41.20
2023-06-19T17:32:15.247Z,42.10
2023-06-19T17:34:42.787Z,42.60
2023-06-19T17:37:10.188Z,42.30
2023-06-19T17:39:37.671Z,42.10
2023-06-19T17:42:06.074Z,42.20
2023-06-19T17:44:33.503Z,42.60
2023-06-19T17:47:01.351Z,42.90
2023-06-19T17:49:28.793Z,43.00
2023-06-19T17:51:56.682Z,42.50
2023-06-19T17:54:24.963Z,43.10
2023-06-19T17:56:52.497Z,43.10
2023-06-19T17:59:20.637Z,42.90
2023-06-19T18:01:50.470Z,43.50
2023-06-19T18:04:17.854Z,43.70
2023-06-19T18:09:35.382Z,44.50
2023-06-19T18:12:02.854Z,44.80
2023-06-19T18:14:30.776Z,44.10
2023-06-19T18:17:02.484Z,43.80
2023-06-19T18:19:30.017Z,44.70
2023-06-19T18:21:57.998Z,44.20
2023-06-19T18:24:25.692Z,44.30
2023-06-19T18:26:53.069Z,44.20
2023-06-19T18:29:21.749Z,44.60
2023-06-19T18:31:50.936Z,44.70
2023-06-19T18:34:18.467Z,45.30
2023-06-19T18:36:45.985Z,44.70
2023-06-19T18:39:13.393Z,44.80
2023-06-19T18:41:41.090Z,45.30
2023-06-19T18:44:08.747Z,44.80
2023-06-19T18:46:36.170Z,45.40
2023-06-19T18:49:03.627Z,44.60
2023-06-19T18:51:31.326Z,45.10
2023-06-19T18:53:59.392Z,45.00
2023-06-19T18:56:27.158Z,45.40
2023-06-19T18:58:54.527Z,45.50
2023-06-19T19:01:21.915Z,45.60
2023-06-19T19:03:49.333Z,46.10
2023-06-19T19:06:18.390Z,46.20
2023-06-19T19:08:46.368Z,46.40
2023-06-19T19:11:13.737Z,46.80
2023-06-19T19:13:41.177Z,47.50
2023-06-19T19:16:08.557Z,47.50
2023-06-19T19:18:35.940Z,47.70
2023-06-19T19:21:03.547Z,47.40
2023-06-19T19:23:30.931Z,49.30
2023-06-19T19:25:58.451Z,49.90
2023-06-19T19:28:25.813Z,49.50
2023-06-19T19:30:53.113Z,49.60
2023-06-19T19:33:20.573Z,49.80
2023-06-19T19:35:48.228Z,49.50
2023-06-19T19:38:18.459Z,49.50
2023-06-19T19:40:46.165Z,49.80
2023-06-19T19:43:14.766Z,50.10
2023-06-19T19:45:42.293Z,50.00
2023-06-19T19:48:09.846Z,49.60
2023-06-19T19:50:37.203Z,50.00
2023-06-19T19:53:04.659Z,50.00
2023-06-19T19:55:32.480Z,50.30
2023-06-19T19:58:02.026Z,50.60
2023-06-19T20:00:29.845Z,51.00
2023-06-19T20:02:57.388Z,51.20
2023-06-19T20:05:24.913Z,51.80
2023-06-19T20:07:52.244Z,51.90
2023-06-19T20:10:20.247Z,52.10
2023-06-19T20:12:47.675Z,52.00
2023-06-19T20:15:15.573Z,51.10
2023-06-19T20:17:43.234Z,52.50
2023-06-19T20:20:11.237Z,52.50
2023-06-19T20:22:38.571Z,52.70
2023-06-19T20:25:07.794Z,52.70
2023-06-19T20:27:35.229Z,52.90
2023-06-19T20:30:03.103Z,53.10
2023-06-19T20:32:31.184Z,53.30
2023-06-19T20:34:58.629Z,54.00
2023-06-19T20:37:26.047Z,54.30
2023-06-19T20:39:55.232Z,54.50
2023-06-19T20:42:22.789Z,54.40
2023-06-19T20:44:50.774Z,54.60
2023-06-19T20:47:19.893Z,54.50
2023-06-19T20:49:48.060Z,55.30
2023-06-19T20:52:15.938Z,54.80
2023-06-19T20:54:43.878Z,54.80
2023-06-19T20:57:11.277Z,55.10
2023-06-19T20:59:38.680Z,55.30
2023-06-19T21:02:06.358Z,56.00
2023-06-19T21:04:34.626Z,56.40
2023-06-19T21:07:02.146Z,57.00
2023-06-19T21:09:29.714Z,56.90
2023-06-19T21:11:57.072Z,57.00
2023-06-19T21:14:24.660Z,56.90
2023-06-19T21:16:52.647Z,56.50
2023-06-19T21:19:20.196Z,56.60
2023-06-19T21:21:48.527Z,56.30
2023-06-19T21:24:17.221Z,56.60
2023-06-19T21:26:45.240Z,57.00
2023-06-19T21:29:13.928Z,57.40
2023-06-19T21:31:43.481Z,57.60
2023-06-19T21:34:10.886Z,57.80
2023-06-19T21:36:38.289Z,58.00
2023-06-19T21:39:05.776Z,57.40
2023-06-19T21:41:33.433Z,57.60
2023-06-19T21:44:03.885Z,57.20
2023-06-19T21:46:31.329Z,57.40
2023-06-19T21:49:01.505Z,58.10
2023-06-19T21:51:29.065Z,58.30
2023-06-19T21:53:56.519Z,58.30
2023-06-19T21:56:24.145Z,58.40
2023-06-19T21:58:51.781Z,58.90
2023-06-19T22:01:19.885Z,59.10
2023-06-19T22:03:47.460Z,60.40
2023-06-19T22:06:15.390Z,60.10
2023-06-19T22:08:43.432Z,59.90
2023-06-19T22:11:10.880Z,59.80
2023-06-19T22:13:38.336Z,60.20
2023-06-19T22:16:06.065Z,59.10
2023-06-19T22:18:33.878Z,59.00
2023-06-19T22:21:02.551Z,58.70
2023-06-19T22:23:29.899Z,59.70
2023-06-19T22:25:57.353Z,59.30
2023-06-19T22:28:24.757Z,59.20
2023-06-19T22:30:52.159Z,58.40
2023-06-19T22:33:19.892Z,58.50
2023-06-19T22:35:47.816Z,58.30
2023-06-19T22:38:15.289Z,58.90
2023-06-19T22:40:42.647Z,58.80
2023-06-19T22:43:09.967Z,59.40
2023-06-19T22:45:37.433Z,59.50
2023-06-19T22:48:04.963Z,59.70
2023-06-19T22:50:32.390Z,60.00
2023-06-19T22:53:00.187Z,59.90
2023-06-19T22:55:28.200Z,59.60
2023-06-19T22:57:55.763Z,60.30
2023-06-19T23:00:23.088Z,61.00
2023-06-19T23:02:50.619Z,61.20
2023-06-19T23:05:18.387Z,61.00
2023-06-19T23:07:45.723Z,61.40
2023-06-19T23:10:13.037Z,62.00
2023-06-19T23:12:40.443Z,62.50
2023-06-19T23:15:08.478Z,62.40
2023-06-19T23:17:36.128Z,62.30
2023-06-19T23:20:08.554Z,61.80
2023-06-19T23:22:36.180Z,61.80
2023-06-19T23:25:03.663Z,61.90
2023-06-19T23:27:31.117Z,62.20
2023-06-19T23:29:58.694Z,62.60
2023-06-19T23:32:26.571Z,63.30
2023-06-19T23:34:54.376Z,63.20
2023-06-19T23:37:21.734Z,63.20
2023-06-19T23:39:49.340Z,63.10
2023-06-19T23:42:16.698Z,62.70
2023-06-19T23:44:44.271Z,62.60
2023-06-19T23:47:11.675Z,62.40
2023-06-19T23:49:39.265Z,63.10
2023-06-19T23:52:08.050Z,63.40
2023-06-19T23:54:35.371Z,63.50
2023-06-19T23:57:02.909Z,63.80
2023-06-19T23:59:30.267Z,63.20
